Aérodrome :
LOGIN :

S'inscrire | Disclaimer

   EN    FR    IT 

 










Légende :    VFR   VFR Marginal   IFR   IFR Intensif   IFR Très Intensif
Visi : 
Plafond : 
>= 8 km
>= 3000ft
5 à 8 km
1000 à 3000 ft
1500m à 5 km
500 à 1000 ft
800 à 1500m
200 à 500 ft
< 800m
< 200 ft
Symboles :   Orages  Brouillard  Fortes neiges  Fortes précipitations  Vent > 20 kt
SIGMETs :   Divers  Orages  Givrage  Turbulence  Onde Orograph.  Cendres Volcan.






- Altitude de l'aérodrome : -11 ft
- Code IATA : AMS


EHAM - Amsterdam Schiphol

DERNIER METAR :
  • 221525Z 12011KT CAVOK 09/06 Q1002 NOSIG

METARs EXPIRÉS :
  • 221455Z 12009KT CAVOK 09/06 Q1002 NOSIG
  • 221425Z 13008KT 100V160 CAVOK 10/06 Q1002 NOSIG
  • 221355Z 14011KT 9999 FEW020 10/06 Q1002 NOSIG
  • 221325Z 15012KT 130V190 9999 FEW020 10/06 Q1002 NOSIG

TAF TAF EHAM
Valide du 22 à 12h jusqu'au 23 à 18h UTC


221109Z 2212/2318 16013KT CAVOK
BECMG 2214/2217 13011KT
BECMG 2222/2301 10013KT



MET'MAP, la Météo Aéronautique d'un coup d'oeil ! - Copyright ORBIFLY Décembre 2007 - Disclaimer

ORBIFLY MET'MAP TEAM :

Programmation & Développement : Alexandra Zaïnal
Conception & Développement : Baudouin d'Aumeries
Co-Programmation & Développement : Marc-Olivier Méhu
Soutien technique & logistique : Manuel Goepfert

Contact : metmap@orbifly.com




SOURCES & CREDITS :

   NOAA